Latest Weather Observations for Cressy

IDT60801

Issued at 1:02 pm EST Tuesday 3 May 2016 (issued every 30 minutes, with the page automatically refreshed every 10 minutes)

About weather observations | Map of weather stations | Latest weather observations for TAS | Other Formats
Station Details ID: 091306 Name: CRESSY RESEARCH STATION Lat: -41.73 Lon: 147.08 Height: 148.0 m
Data from the previous 72 hours. | See also: Recent months at Cressy
Date/Time
EST
Temp
°C
App
Temp
°C
Dew
Point
Rel
Hum
%
Delta-T
°C
Wind Press
QNH
hPa
Press
MSL
hPa
Rain
since 9 am
mm
Dir
 
Spd
km/h
Gust
km/h
Spd
kts
Gust
kts
03/01:00pm 13.1 7.7 10.8 86 1.2 N 30 39 16 21 - - 5.8
03/12:30pm 13.1 7.4 11.0 87 1.1 NNW 32 41 17 22 - - 5.8
03/12:00pm 12.9 6.3 11.3 90 0.9 NNW 37 46 20 25 - - 5.8
03/11:30am 12.3 6.3 10.9 91 0.7 NW 33 43 18 23 - - 5.4
03/11:00am 13.2 5.3 10.9 86 1.2 NW 43 65 23 35 - - 5.0
03/10:53am 13.2 5.0 11.8 91 0.8 NNW 46 74 25 40 - - 4.8
03/10:49am 13.4 5.8 11.8 90 0.9 NNW 43 74 23 40 - - 4.4
03/10:38am 12.9 7.4 12.0 94 0.5 N 32 54 17 29 - - 4.0
03/10:30am 12.8 7.1 11.7 93 0.6 N 33 46 18 25 - - 3.6
03/10:00am 12.4 7.6 11.5 94 0.5 N 28 41 15 22 - - 2.2
03/09:30am 12.3 7.0 11.2 93 0.6 NNW 30 35 16 19 - - 1.0
03/09:00am 12.4 6.5 11.1 92 0.7 NNW 33 43 18 23 - - 20.4
03/08:30am 12.6 6.0 11.2 91 0.7 NNW 37 54 20 29 - - 19.8
03/08:28am 12.7 6.5 11.3 91 0.7 NNW 35 54 19 29 - - 19.8
03/08:00am 12.8 5.6 10.7 87 1.1 NNW 39 54 21 29 - - 19.2
03/07:48am 13.0 6.7 11.1 88 1.0 NNW 35 54 19 29 - - 19.2
03/07:30am 12.9 5.4 10.8 87 1.1 NNW 41 56 22 30 - - 19.0
03/07:00am 12.8 5.1 11.5 92 0.7 WNW 43 63 23 34 - - 18.4
03/06:55am 12.8 4.0 11.0 89 1.0 NW 48 72 26 39 - - 16.0
03/06:53am 13.5 4.7 12.2 92 0.7 NNW 50 72 27 39 - - 15.0
03/06:32am 13.9 4.2 11.9 88 1.1 NNW 54 74 29 40 - - 14.2
03/06:30am 13.8 4.1 11.8 88 1.1 NNW 54 70 29 38 - - 14.2
03/06:00am 14.6 2.3 11.2 80 1.8 NNW 67 91 36 49 - - 14.0
03/05:58am 14.6 2.6 11.2 80 1.8 NNW 65 91 35 49 - - 14.0
03/05:30am 13.2 4.3 11.8 91 0.8 NNW 50 72 27 39 - - 14.0
03/05:00am 13.1 3.8 11.7 91 0.8 NNW 52 70 28 38 - - 13.8
03/04:30am 13.5 4.8 11.4 87 1.1 NNW 48 69 26 37 - - 13.4
03/04:02am 13.1 5.2 11.5 90 0.9 NNW 44 63 24 34 - - 13.2
03/04:00am 13.1 4.8 11.5 90 0.9 NNW 46 63 25 34 - - 13.2
03/03:32am 13.9 3.5 10.7 81 1.7 NNW 56 74 30 40 - - 13.2
03/03:30am 13.9 3.6 10.9 82 1.6 NNW 56 72 30 39 - - 13.2
03/03:00am 13.7 2.4 10.7 82 1.6 NNW 61 91 33 49 - - 13.2
03/02:30am 14.5 3.0 10.1 75 2.3 NNW 61 80 33 43 - - 13.2
03/02:00am 14.6 3.0 9.8 73 2.5 NNW 61 82 33 44 - - 13.2
03/01:31am 14.1 3.9 10.1 77 2.1 NNW 54 72 29 39 - - 13.2
03/01:30am 14.2 3.6 10.0 76 2.2 NNW 56 72 30 39 - - 13.2
03/01:00am 14.1 3.8 9.7 75 2.3 NNW 54 74 29 40 - - 13.2
03/12:30am 14.3 3.1 9.7 74 2.4 NNW 59 82 32 44 - - 13.2
03/12:05am 13.9 3.8 10.5 80 1.8 NNW 54 72 29 39 - - 13.2
03/12:00am 13.8 4.1 10.4 80 1.8 NNW 52 69 28 37 - - 13.2
 
Date/Time
EST
Temp
°C
App
Temp
°C
Dew
Point
Rel
Hum
%
Delta-T
°C
Wind Press
QNH
hPa
Press
MSL
hPa
Rain
since 9 am
mm
Dir
 
Spd
km/h
Gust
km/h
Spd
kts
Gust
kts
02/11:45pm 13.4 3.7 10.6 83 1.5 NNW 52 72 28 39 - - 13.2
02/11:33pm 13.2 6.1 10.9 86 1.2 NNW 39 69 21 37 - - 13.0
02/11:30pm 13.0 7.2 10.9 87 1.1 NW 32 59 17 32 - - 13.0
02/11:00pm 12.9 6.5 10.8 87 1.1 NNW 35 57 19 31 - - 12.2
02/10:33pm 12.8 4.7 10.7 87 1.1 NNW 44 63 24 34 - - 11.6
02/10:30pm 12.8 4.3 10.7 87 1.1 NNW 46 63 25 34 - - 11.6
02/10:13pm 13.3 6.1 10.5 83 1.5 NNW 39 57 21 31 - - 11.6
02/10:00pm 13.0 5.8 10.5 85 1.3 NNW 39 54 21 29 - - 11.4
02/09:30pm 13.1 6.3 10.5 84 1.4 NNW 37 54 20 29 - - 11.2
02/09:00pm 12.8 5.6 10.5 86 1.2 NNW 39 54 21 29 - - 11.2
02/08:37pm 12.8 6.3 10.5 86 1.2 NW 35 54 19 29 - - 9.0
02/08:30pm 12.5 7.0 10.6 88 1.0 NW 30 41 16 22 - - 8.8
02/08:22pm 12.5 5.7 10.7 89 0.9 NNW 37 56 20 30 - - 7.6
02/08:00pm 12.9 4.7 10.3 84 1.4 NNW 44 63 24 34 - - 6.6
02/07:55pm 12.8 4.8 10.3 85 1.3 NNW 43 63 23 34 - - 6.6
02/07:30pm 12.3 4.3 10.5 89 0.9 NNW 43 56 23 30 - - 6.2
02/07:03pm 12.2 3.7 10.6 90 0.8 NNW 46 65 25 35 - - 5.2
02/07:00pm 12.2 4.1 10.6 90 0.8 NNW 44 59 24 32 - - 5.2
02/06:30pm 12.1 4.1 10.5 90 0.8 NNW 43 57 23 31 - - 4.2
02/06:09pm 12.0 5.2 10.6 91 0.7 NNW 37 63 20 34 - - 2.4
02/06:00pm 12.1 4.9 10.7 91 0.7 NNW 39 54 21 29 - - 1.4
02/05:30pm 12.4 5.2 10.6 89 0.9 NNW 39 50 21 27 - - 0.8
02/05:02pm 12.1 4.9 10.5 90 0.8 NNW 39 57 21 31 - - 0.4
02/05:00pm 12.2 4.6 10.6 90 0.8 NNW 41 57 22 31 - - 0.4
02/04:54pm 12.5 5.3 10.4 87 1.1 NNW 39 57 21 31 - - 0.4
02/04:30pm 12.5 6.0 10.4 87 1.1 NNW 35 46 19 25 - - 0.4
02/04:07pm 12.6 4.5 10.1 85 1.3 NNW 43 61 23 33 - - 0.4
02/04:00pm 12.4 4.8 10.6 89 0.9 NNW 41 56 22 30 - - 0.4
02/03:30pm 13.2 5.5 10.0 81 1.7 NNW 41 54 22 29 - - 0.2
02/03:00pm 13.3 5.4 10.7 84 1.4 NNW 43 59 23 32 - - 0.2
02/02:30pm 12.7 5.4 10.1 84 1.3 NNW 39 56 21 30 - - 0.0
02/02:00pm 13.9 5.6 9.3 74 2.4 NNW 43 63 23 34 - - 0.0
02/01:48pm 14.3 6.0 9.3 72 2.6 NNW 43 61 23 33 - - 0.0
02/01:30pm 14.5 6.4 8.5 67 3.0 NNW 41 54 22 29 - - 0.0
02/01:16pm 14.7 7.1 8.9 68 3.0 NNW 39 57 21 31 - - 0.0
02/01:00pm 14.8 6.6 8.3 65 3.3 NNW 41 52 22 28 - - 0.0
02/12:30pm 14.8 7.4 8.3 65 3.3 NNW 37 52 20 28 - - 0.0
02/12:00pm 14.4 6.5 7.9 65 3.3 NNW 39 50 21 27 - - 0.0
02/11:30am 14.1 6.0 7.2 63 3.4 NNW 39 50 21 27 - - 0.0
02/11:00am 13.8 6.7 8.2 69 2.8 NNW 35 48 19 26 - - 0.0
02/10:30am 12.7 5.8 7.2 69 2.7 NNW 33 46 18 25 - - 0.0
02/10:00am 12.1 5.1 6.8 70 2.6 NNW 33 46 18 25 - - 0.0
02/09:30am 11.4 5.7 6.7 73 2.2 NNW 26 33 14 18 - - 0.0
02/09:00am 10.5 3.3 6.1 74 2.1 NNW 33 43 18 23 - - 7.0
02/08:30am 9.7 4.2 5.9 77 1.8 N 24 35 13 19 - - 7.0
02/08:00am 8.7 2.7 5.3 79 1.5 N 26 35 14 19 - - 7.0
02/07:30am 7.5 2.6 4.3 80 1.4 N 19 28 10 15 - - 7.0
02/07:00am 7.7 2.3 4.3 79 1.5 N 22 33 12 18 - - 7.0
02/06:30am 7.5 2.4 3.9 78 1.6 N 20 28 11 15 - - 7.0
02/06:00am 7.6 1.7 4.0 78 1.6 N 24 33 13 18 - - 7.0
02/05:30am 7.5 2.4 4.1 79 1.5 N 20 28 11 15 - - 7.0
02/05:00am 7.7 2.6 4.1 78 1.6 N 20 26 11 14 - - 7.0
02/04:30am 7.5 2.0 4.1 79 1.5 N 22 28 12 15 - - 7.0
02/04:00am 7.6 1.3 4.0 78 1.6 NNW 26 32 14 17 - - 7.0
02/03:30am 7.5 1.6 3.9 78 1.6 N 24 32 13 17 - - 7.0
02/03:00am 7.8 1.9 3.7 75 1.8 N 24 30 13 16 - - 7.0
02/02:30am 7.8 1.0 3.3 73 1.9 N 28 35 15 19 - - 7.0
02/02:00am 8.0 1.7 3.7 74 1.9 N 26 37 14 20 - - 7.0
02/01:30am 8.0 0.9 3.7 74 1.9 N 30 37 16 20 - - 7.0
02/01:00am 8.0 0.9 3.5 73 1.9 NNW 30 39 16 21 - - 7.0
02/12:30am 8.1 0.6 3.6 73 1.9 NNW 32 39 17 21 - - 7.0
02/12:00am 8.3 0.9 3.8 73 2.0 NNW 32 39 17 21 - - 7.0
 
Date/Time
EST
Temp
°C
App
Temp
°C
Dew
Point
Rel
Hum
%
Delta-T
°C
Wind Press
QNH
hPa
Press
MSL
hPa
Rain
since 9 am
mm
Dir
 
Spd
km/h
Gust
km/h
Spd
kts
Gust
kts
01/11:30pm 8.1 1.4 3.8 74 1.9 NNW 28 39 15 21 - - 7.0
01/11:00pm 8.7 1.4 4.3 74 1.9 NNW 32 39 17 21 - - 7.0
01/10:30pm 8.6 1.6 4.2 74 1.9 NNW 30 39 16 21 - - 7.0
01/10:00pm 9.4 3.8 3.4 66 2.6 NW 22 32 12 17 - - 7.0
01/09:30pm 9.8 5.0 2.6 61 3.1 NNW 17 26 9 14 - - 7.0
01/09:00pm 11.2 4.0 0.9 49 4.3 WNW 28 50 15 27 - - 7.0
01/08:59pm 11.4 4.5 0.2 46 4.6 WNW 26 48 14 26 - - 7.0
01/08:46pm 11.2 4.9 1.5 51 4.1 WNW 24 44 13 24 - - 7.0
01/08:42pm 11.4 5.8 1.4 50 4.2 WNW 20 44 11 24 - - 7.0
01/08:30pm 10.6 5.3 2.9 59 3.4 NW 20 35 11 19 - - 7.0
01/08:00pm 10.5 4.7 4.6 67 2.7 NNW 24 33 13 18 - - 7.0
01/07:30pm 11.9 5.4 2.6 53 4.1 W 26 39 14 21 - - 7.0
01/07:09pm 12.1 5.7 3.1 54 4.0 W 26 54 14 29 - - 7.0
01/07:00pm 11.2 6.3 4.0 61 3.2 NW 19 28 10 15 - - 7.0
01/06:30pm 11.4 7.3 4.4 62 3.2 N 15 30 8 16 - - 7.0
01/06:13pm 12.3 5.2 3.5 55 3.9 W 30 54 16 29 - - 7.0
01/06:00pm 12.9 1.8 2.7 50 4.5 WSW 50 80 27 43 - - 7.0
01/05:54pm 12.6 1.2 3.0 52 4.3 WSW 52 80 28 43 - - 7.0
01/05:30pm 13.1 -0.8 2.9 50 4.5 W 65 100 35 54 - - 7.0
01/05:24pm 13.4 1.1 2.9 49 4.7 W 57 91 31 49 - - 7.0
01/05:08pm 13.2 2.1 2.7 49 4.7 W 50 83 27 45 - - 7.0
01/05:05pm 12.9 2.7 3.3 52 4.3 W 46 65 25 35 - - 7.0
01/05:00pm 13.0 3.3 3.1 51 4.4 W 43 65 23 35 - - 7.0
01/04:57pm 13.0 3.7 3.1 51 4.4 WNW 41 65 22 35 - - 7.0
01/04:30pm 12.7 3.8 3.1 52 4.3 WNW 39 61 21 33 - - 7.0
01/04:00pm 12.6 5.3 4.3 57 3.8 NW 32 54 17 29 - - 7.0
01/03:44pm 12.9 4.5 3.8 54 4.1 NW 37 63 20 34 - - 7.0
01/03:30pm 12.0 3.7 6.1 67 2.8 NNW 39 48 21 26 - - 7.0
01/03:00pm 12.1 3.6 6.8 70 2.6 NNW 41 54 22 29 - - 7.0
01/02:47pm 12.8 6.1 7.3 69 2.7 NW 32 48 17 26 - - 7.0
01/02:30pm 14.3 6.2 6.9 61 3.6 WNW 39 57 21 31 - - 7.0
01/02:00pm 14.0 7.5 10.4 79 1.9 NW 35 48 19 26 - - 7.0
01/01:49pm 14.1 9.2 11.3 83 1.5 NW 28 44 15 24 - - 7.0
01/01:31pm 13.5 7.8 11.9 90 0.9 NNW 33 52 18 28 - - 7.0
01/01:30pm 13.7 7.7 12.1 90 0.9 NNW 35 52 19 28 - - 7.0
01/01:09pm 14.7 9.1 11.5 81 1.7 NNW 32 50 17 27 - - 6.0
01/01:00pm 14.7 9.2 12.4 86 1.3 NNW 33 44 18 24 - - 6.0
01/12:40pm 14.4 9.1 12.6 89 1.0 N 32 50 17 27 - - 6.0
01/12:30pm 13.9 10.7 13.0 94 0.5 NNW 22 32 12 17 - - 5.8
01/12:00pm 12.7 10.6 11.3 91 0.7 NNE 13 24 7 13 - - 4.4
01/11:30am 12.3 10.2 11.2 93 0.6 N 13 20 7 11 - - 4.2
01/11:00am 11.7 6.9 10.4 92 0.7 NNW 26 35 14 19 - - 4.2
01/10:36am 12.5 6.5 10.0 85 1.3 NNW 32 82 17 44 - - 3.2
01/10:35am 13.1 8.3 11.8 92 0.7 N 28 59 15 32 - - 2.8
01/10:30am 13.5 10.3 11.9 90 0.9 N 20 35 11 19 - - 0.4
01/10:00am 13.1 12.1 12.2 94 0.5 N 9 13 5 7 - - 0.0
01/09:30am 12.9 12.5 12.3 96 0.3 NNE 6 7 3 4 - - 0.0
01/09:00am 12.7 11.6 12.1 96 0.3 NNE 9 13 5 7 - - 8.4
01/08:30am 13.0 10.4 12.1 94 0.5 N 17 26 9 14 - - 7.8
01/08:00am 13.2 10.2 12.1 93 0.6 NW 19 28 10 15 - - 6.8
01/07:30am 13.5 8.5 12.1 91 0.8 NW 30 44 16 24 - - 4.0
01/07:00am 14.1 11.1 13.8 98 0.2 NW 22 32 12 17 - - 2.2
01/06:30am 12.4 11.9 12.1 98 0.2 SSW 6 9 3 5 - - 1.4
01/06:00am 12.6 12.0 12.3 98 0.2 ESE 7 13 4 7 - - 1.4
01/05:30am 13.1 11.5 12.8 98 0.2 SE 13 15 7 8 - - 1.4
01/05:00am 11.4 10.4 10.9 97 0.3 SSE 7 11 4 6 - - 1.4
01/04:30am 11.4 10.4 10.9 97 0.3 SSE 7 9 4 5 - - 1.4
01/04:00am 12.5 12.7 11.9 96 0.3 NNW 2 6 1 3 - - 1.4
01/03:30am 13.3 13.8 12.7 96 0.3 N 2 7 1 4 - - 1.4
01/03:00am 13.5 13.6 12.7 95 0.4 NW 4 6 2 3 - - 1.4
01/02:30am 13.6 14.1 12.7 94 0.5 NW 2 7 1 4 - - 1.4
01/02:00am 14.5 14.5 13.5 94 0.6 NNW 6 7 3 4 - - 1.4
01/01:30am 14.4 14.1 13.3 93 0.6 NNW 7 9 4 5 - - 1.4
01/01:00am 14.9 13.5 13.4 91 0.8 NW 13 17 7 9 - - 1.4
01/12:30am 15.6 13.4 14.3 92 0.7 NW 19 26 10 14 - - 1.4
01/12:00am 15.7 14.0 14.7 94 0.6 NNW 17 24 9 13 - - 0.8
 
Date/Time
EST
Temp
°C
App
Temp
°C
Dew
Point
Rel
Hum
%
Delta-T
°C
Wind Press
QNH
hPa
Press
MSL
hPa
Rain
since 9 am
mm
Dir
 
Spd
km/h
Gust
km/h
Spd
kts
Gust
kts
30/11:30pm 15.2 13.7 14.1 93 0.6 NNW 15 19 8 10 - - 0.8
30/11:00pm 15.5 13.1 14.5 94 0.6 NNW 20 24 11 13 - - 0.8
30/10:30pm 15.2 13.4 14.4 95 0.5 NW 17 20 9 11 - - 0.8
30/10:00pm 14.6 14.0 13.6 94 0.6 NW 9 11 5 6 - - 0.8
30/09:30pm 14.8 14.3 13.7 93 0.6 NNW 9 13 5 7 - - 0.8
30/09:00pm 15.3 13.7 14.0 92 0.7 NW 15 19 8 10 - - 0.8
30/08:30pm 15.7 14.6 14.2 91 0.9 NNW 13 17 7 9 - - 0.8
30/08:00pm 16.2 14.0 14.4 89 1.0 N 19 24 10 13 - - 0.8
30/07:30pm 16.2 14.8 14.6 90 0.9 N 15 20 8 11 - - 0.8
30/07:00pm 16.0 13.8 14.5 91 0.9 NNW 19 24 10 13 - - 0.8
30/06:30pm 15.8 13.9 14.3 91 0.9 NNW 17 20 9 11 - - 0.8
30/06:00pm 16.2 13.6 13.9 86 1.3 N 20 26 11 14 - - 0.8
30/05:30pm 16.2 13.6 13.9 86 1.3 NNW 20 26 11 14 - - 0.8
30/05:00pm 16.7 13.4 14.0 84 1.5 NNW 24 30 13 16 - - 0.8
30/04:30pm 17.0 13.0 14.1 83 1.7 NNW 28 33 15 18 - - 0.8
30/04:00pm 16.9 12.9 14.2 84 1.6 NNW 28 35 15 19 - - 0.8
30/03:30pm 17.6 12.8 14.1 80 2.0 NNW 32 44 17 24 - - 0.6
30/03:00pm 18.7 13.7 14.0 74 2.7 NNW 33 43 18 23 - - 0.6
30/02:30pm 18.3 13.9 14.0 76 2.5 NNW 30 41 16 22 - - 0.6
30/02:00pm 18.3 14.3 15.2 82 1.8 NNW 30 41 16 22 - - 0.6
30/01:30pm 17.6 13.7 14.3 81 1.9 NW 28 37 15 20 - - 0.6

Other Formats:

Comma delimited format used in spreadsheet applications
http://www.bom.gov.au/fwo/IDT60801/IDT60801.95969.axf

JavaScript Object Notation format (JSON) in row-major order
http://www.bom.gov.au/fwo/IDT60801/IDT60801.95969.json